createdAt,value
2023-08-14T00:04:42.427Z,101407.28
2023-08-14T00:09:46.301Z,101409.88
2023-08-14T00:14:48.837Z,101400.13
2023-08-14T00:19:51.342Z,101396.59
2023-08-14T00:24:55.204Z,101400.28
2023-08-14T00:29:57.891Z,101406.50
2023-08-14T00:35:00.492Z,101411.09
2023-08-14T00:40:04.820Z,101401.34
2023-08-14T00:45:08.745Z,101403.16
2023-08-14T00:50:12.294Z,101390.69
2023-08-14T00:55:20.952Z,101385.22
2023-08-14T01:00:24.287Z,101385.16
2023-08-14T01:05:26.969Z,101385.16
2023-08-14T01:10:41.489Z,101398.59
2023-08-14T01:15:46.713Z,101394.22
2023-08-14T01:21:00.594Z,101395.13
2023-08-14T01:26:04.844Z,101391.56
2023-08-14T01:31:07.409Z,101382.59
2023-08-14T01:36:19.021Z,101384.22
2023-08-14T01:41:27.771Z,101383.00
2023-08-14T01:46:35.173Z,101387.22
2023-08-14T01:51:38.359Z,101387.09
2023-08-14T01:56:42.206Z,101381.47
2023-08-14T02:01:44.765Z,101384.09
2023-08-14T02:06:47.319Z,101370.72
2023-08-14T02:11:51.211Z,101375.06
2023-08-14T02:16:54.000Z,101370.63
2023-08-14T02:21:56.539Z,101364.41
2023-08-14T02:27:00.467Z,101365.31
2023-08-14T02:32:03.001Z,101369.63
2023-08-14T02:37:05.740Z,101374.00
2023-08-14T02:42:10.197Z,101365.03
2023-08-14T02:47:12.824Z,101365.72
2023-08-14T02:52:15.563Z,101365.63
2023-08-14T02:57:19.662Z,101361.06
2023-08-14T03:02:22.285Z,101358.25
2023-08-14T03:07:24.817Z,101361.63
2023-08-14T03:12:28.672Z,101358.78
2023-08-14T03:17:31.234Z,101365.66
2023-08-14T03:22:33.781Z,101370.09
2023-08-14T03:27:38.009Z,101363.03
2023-08-14T03:32:40.609Z,101362.88
2023-08-14T03:37:43.153Z,101348.50
2023-08-14T03:42:46.995Z,101337.53
2023-08-14T03:47:49.651Z,101355.22
2023-08-14T03:52:52.223Z,101358.72
2023-08-14T03:57:57.348Z,101362.09
2023-08-14T04:02:59.983Z,101356.47
2023-08-14T04:08:02.615Z,101361.69
2023-08-14T04:13:07.603Z,101359.88
2023-08-14T04:18:10.167Z,101346.47
2023-08-14T04:23:13.028Z,101350.69
2023-08-14T04:28:16.889Z,101355.72
2023-08-14T04:33:19.754Z,101353.22
2023-08-14T04:38:22.371Z,101349.75
2023-08-14T04:43:26.369Z,101344.53
2023-08-14T04:48:28.887Z,101351.66
2023-08-14T04:53:31.534Z,101334.84
2023-08-14T04:58:35.384Z,101341.25
2023-08-14T05:03:38.341Z,101339.69
2023-08-14T05:08:40.893Z,101344.44
2023-08-14T05:13:45.623Z,101337.50
2023-08-14T05:18:48.232Z,101343.88
2023-08-14T05:23:50.776Z,101341.44
2023-08-14T05:28:54.666Z,101337.47
2023-08-14T05:33:58.281Z,101345.03
2023-08-14T05:39:00.853Z,101347.19
2023-08-14T05:44:04.914Z,101344.03
2023-08-14T05:49:07.444Z,101346.22
2023-08-14T05:54:10.177Z,101354.56
2023-08-14T05:59:14.065Z,101348.78
2023-08-14T06:04:16.669Z,101355.41
2023-08-14T06:09:20.680Z,101354.94
2023-08-14T06:14:24.520Z,101348.28
2023-08-14T06:19:27.069Z,101358.59
2023-08-14T06:24:30.392Z,101351.25
2023-08-14T06:29:34.263Z,101362.50
2023-08-14T06:34:36.961Z,101353.03
2023-08-14T06:39:39.510Z,101366.94
2023-08-14T06:44:43.388Z,101358.47
2023-08-14T06:49:45.934Z,101349.78
2023-08-14T06:54:48.478Z,101340.38
2023-08-14T06:59:52.385Z,101337.34
2023-08-14T07:04:54.905Z,101340.53
2023-08-14T07:09:57.749Z,101336.34
2023-08-14T07:15:02.554Z,101336.53
2023-08-14T07:20:10.637Z,101345.69
2023-08-14T07:25:14.413Z,101342.47
2023-08-14T07:30:18.940Z,101347.06
2023-08-14T07:35:21.785Z,101338.34
2023-08-14T07:40:24.347Z,101340.25
2023-08-14T07:45:28.354Z,101357.28
2023-08-14T07:50:30.980Z,101352.84
2023-08-14T07:55:33.611Z,101372.66
2023-08-14T08:00:37.883Z,101370.94
2023-08-14T08:05:40.556Z,101375.47
2023-08-14T08:10:43.149Z,101365.53
2023-08-14T08:15:47.040Z,101370.88
2023-08-14T08:20:49.629Z,101361.78
2023-08-14T08:25:52.473Z,101361.78
2023-08-14T08:30:56.463Z,101362.59
2023-08-14T08:35:58.994Z,101352.66
2023-08-14T08:41:03.947Z,101355.31
2023-08-14T08:46:11.005Z,101352.66
2023-08-14T08:51:13.975Z,101346.13
2023-08-14T08:56:16.751Z,101361.28
2023-08-14T09:01:21.584Z,101351.31
2023-08-14T09:06:24.157Z,101350.63
2023-08-14T09:11:27.092Z,101347.78
2023-08-14T09:16:31.069Z,101338.28
2023-08-14T09:21:33.839Z,101333.47
2023-08-14T09:26:36.392Z,101328.78
2023-08-14T09:31:44.510Z,101327.19
2023-08-14T09:36:50.188Z,101330.69
2023-08-14T09:41:53.705Z,101331.16
2023-08-14T09:47:02.019Z,101332.78
2023-08-14T09:52:07.640Z,101328.31
2023-08-14T09:57:10.377Z,101330.31
2023-08-14T10:02:18.153Z,101331.34
2023-08-14T10:07:22.236Z,101335.66
2023-08-14T10:12:30.221Z,101332.03
2023-08-14T10:17:38.683Z,101331.63
2023-08-14T10:22:42.864Z,101324.88
2023-08-14T10:27:45.564Z,101331.97
2023-08-14T10:32:50.275Z,101332.78
2023-08-14T10:38:08.342Z,101331.72
2023-08-14T10:43:13.169Z,101341.84
2023-08-14T10:48:18.693Z,101336.59
2023-08-14T10:53:21.274Z,101332.75
2023-08-14T10:58:40.641Z,101336.22
2023-08-14T11:04:05.860Z,101327.69
2023-08-14T11:09:08.432Z,101323.88
2023-08-14T11:14:11.514Z,101317.16
2023-08-14T11:19:15.602Z,101315.91
2023-08-14T11:24:18.654Z,101310.28
2023-08-14T11:29:21.272Z,101304.69
2023-08-14T11:34:25.133Z,101302.94
2023-08-14T11:39:28.779Z,101302.31
2023-08-14T11:44:31.349Z,101294.00
2023-08-14T11:49:37.280Z,101304.44
2023-08-14T11:54:39.881Z,101294.00
2023-08-14T11:59:42.490Z,101284.69
2023-08-14T12:04:46.348Z,101289.31
2023-08-14T12:09:49.872Z,101290.94
2023-08-14T12:14:54.411Z,101294.41
2023-08-14T12:19:59.473Z,101284.13
2023-08-14T12:25:05.625Z,101297.75
2023-08-14T12:30:11.474Z,101305.47
2023-08-14T12:35:15.407Z,101301.47
2023-08-14T12:40:18.280Z,101307.97
2023-08-14T12:45:20.936Z,101292.25
2023-08-14T12:50:24.825Z,101294.19
2023-08-14T12:55:27.449Z,101283.13
2023-08-14T13:00:32.515Z,101295.44
2023-08-14T13:05:36.794Z,101277.03
2023-08-14T13:10:39.326Z,101284.22
2023-08-14T13:15:41.878Z,101282.72
2023-08-14T13:20:45.798Z,101283.91
2023-08-14T13:25:48.346Z,101273.38
2023-08-14T13:30:51.439Z,101274.75
2023-08-14T13:35:55.400Z,101269.66
2023-08-14T13:40:58.152Z,101267.13
2023-08-14T13:46:00.774Z,101268.03
2023-08-14T13:51:04.794Z,101258.69
2023-08-14T13:56:07.433Z,101253.75
2023-08-14T14:01:10.377Z,101251.31
2023-08-14T14:06:14.388Z,101246.41
2023-08-14T14:11:16.912Z,101242.06
2023-08-14T14:16:24.272Z,101230.63
2023-08-14T14:21:28.315Z,101229.06
2023-08-14T14:26:30.827Z,101231.63
2023-08-14T14:31:33.457Z,101229.94
2023-08-14T14:36:37.835Z,101237.19
2023-08-14T14:41:40.588Z,101232.16
2023-08-14T14:46:43.469Z,101231.75
2023-08-14T14:51:47.512Z,101226.97
2023-08-14T14:56:50.064Z,101232.69
2023-08-14T15:01:52.581Z,101226.84
2023-08-14T15:06:56.459Z,101220.78
2023-08-14T15:11:58.988Z,101224.56
2023-08-14T15:17:01.524Z,101208.34
2023-08-14T15:22:05.639Z,101204.97
2023-08-14T15:27:08.201Z,101201.38
2023-08-14T15:32:10.728Z,101203.88
2023-08-14T15:37:14.651Z,101197.41
2023-08-14T15:42:17.256Z,101190.97
2023-08-14T15:47:20.040Z,101186.22
2023-08-14T15:52:29.615Z,101187.81
2023-08-14T15:57:32.243Z,101191.41
2023-08-14T16:02:35.205Z,101190.50
2023-08-14T16:07:39.274Z,101186.16
2023-08-14T16:12:41.890Z,101179.00
2023-08-14T16:17:44.477Z,101183.53
2023-08-14T16:22:48.496Z,101184.56
2023-08-14T16:27:51.039Z,101184.59
2023-08-14T16:32:53.628Z,101186.50
2023-08-14T16:37:57.537Z,101194.81
2023-08-14T16:43:01.169Z,101184.13
2023-08-14T16:48:04.961Z,101178.75
2023-08-14T16:53:10.689Z,101178.91
2023-08-14T16:58:13.301Z,101164.59
2023-08-14T17:03:15.882Z,101170.22
2023-08-14T17:08:19.733Z,101179.44
2023-08-14T17:13:22.364Z,101175.03
2023-08-14T17:18:25.235Z,101158.09
2023-08-14T17:23:29.168Z,101156.50
2023-08-14T17:28:31.787Z,101150.34
2023-08-14T17:33:34.337Z,101159.56
2023-08-14T17:38:38.218Z,101156.16
2023-08-14T17:43:40.756Z,101158.22
2023-08-14T17:48:43.282Z,101163.97
2023-08-14T17:53:47.125Z,101158.75
2023-08-14T17:58:49.720Z,101147.19
2023-08-14T18:03:52.435Z,101156.38
2023-08-14T18:08:56.378Z,101160.13
2023-08-14T18:13:58.892Z,101158.47
2023-08-14T18:19:17.690Z,101151.41
2023-08-14T18:24:25.299Z,101149.69
2023-08-14T18:29:27.830Z,101137.25
2023-08-14T18:34:30.384Z,101146.38
2023-08-14T18:39:34.257Z,101150.03
2023-08-14T18:44:36.800Z,101149.28
2023-08-14T18:49:44.122Z,101152.97
2023-08-14T18:54:48.452Z,101154.81
2023-08-14T18:59:50.974Z,101162.09
2023-08-14T19:04:53.553Z,101174.81
2023-08-14T19:09:57.690Z,101178.44
2023-08-14T19:15:00.290Z,101182.94
2023-08-14T19:20:03.256Z,101178.47
2023-08-14T19:25:08.151Z,101195.59
2023-08-14T19:30:11.351Z,101198.34
2023-08-14T19:35:13.871Z,101197.47
2023-08-14T19:40:17.731Z,101193.03
2023-08-14T19:45:20.861Z,101184.09
2023-08-14T19:50:23.420Z,101186.81
2023-08-14T19:55:27.295Z,101185.97
2023-08-14T20:00:29.923Z,101177.00
2023-08-14T20:05:32.517Z,101180.56
2023-08-14T20:10:36.387Z,101173.41
2023-08-14T20:15:43.946Z,101169.88
2023-08-14T20:20:46.469Z,101160.88
2023-08-14T20:25:52.269Z,101152.81
2023-08-14T20:30:54.863Z,101151.91
2023-08-14T20:35:57.509Z,101142.09
2023-08-14T20:41:01.759Z,101136.72
2023-08-14T20:46:04.328Z,101142.13
2023-08-14T20:51:06.907Z,101149.28
2023-08-14T20:56:10.758Z,101149.31
2023-08-14T21:01:14.897Z,101142.13
2023-08-14T21:06:18.608Z,101152.00
2023-08-14T21:11:22.773Z,101154.69
2023-08-14T21:16:25.478Z,101152.91
2023-08-14T21:21:28.103Z,101159.16
2023-08-14T21:26:32.282Z,101152.91
2023-08-14T21:31:35.255Z,101152.00
2023-08-14T21:36:37.856Z,101152.00
2023-08-14T21:41:41.803Z,101143.06
2023-08-14T21:46:44.624Z,101132.25
2023-08-14T21:51:47.353Z,101129.59
2023-08-14T21:56:51.282Z,101126.00
2023-08-14T22:01:53.895Z,101117.03
2023-08-14T22:06:56.412Z,101130.47
2023-08-14T22:12:00.316Z,101117.94
2023-08-14T22:17:02.878Z,101122.41
2023-08-14T22:22:05.454Z,101123.31
2023-08-14T22:27:09.412Z,101118.81
2023-08-14T22:32:11.971Z,101127.75
2023-08-14T22:37:14.503Z,101122.38
2023-08-14T22:42:18.372Z,101117.91
2023-08-14T22:47:21.050Z,101111.59
2023-08-14T22:52:23.857Z,101115.16
2023-08-14T22:57:27.727Z,101116.94
2023-08-14T23:02:30.298Z,101111.56
2023-08-14T23:07:32.881Z,101107.94
2023-08-14T23:12:36.736Z,101103.47
2023-08-14T23:17:39.572Z,101099.88
2023-08-14T23:22:42.229Z,101095.38
2023-08-14T23:27:46.871Z,101096.25
2023-08-14T23:32:49.478Z,101100.69
2023-08-14T23:37:52.028Z,101110.53
2023-08-14T23:42:55.929Z,101111.44
2023-08-14T23:47:58.506Z,101105.19
2023-08-14T23:53:01.061Z,101098.00
2023-08-14T23:58:05.286Z,101090.81
